LJPZ/POW METAR and TAF weather

Enter ICAO airport designator
Station Type Date Time Source
LJPZ METAR 2020/12/05 06:00 UTC NOAA

LJPZ 050600Z 13010KT 100V160 9999 -RA FEW030 BKN065 14/10 Q1001


Station Type Date Time Source
LJPZ Decoded METAR 2020/12/05 06:00 UTC NOAA

Portoroz, Slovenia (LJPZ) 45-31N 013-34E
Dec 05, 2020 - 01:00 AM EST / 2020.12.05 0600 UTC
Wind: from the SE (130 degrees) at 12 MPH (10 KT) (direction variable):0
Visibility: greater than 7 mile(s):0
Sky conditions: mostly cloudy
Weather: light rain
Temperature: 57 F (14 C)
Dew Point: 50 F (10 C)
Relative Humidity: 76%
Pressure (altimeter): 29.56 in. Hg (1001 hPa)
ob: LJPZ 050600Z 13010KT 100V160 9999 -RA FEW030 BKN065 14/10 Q1001
cycle: 6

Station Type Date Time Source
LJPZ TAF 2020/09/27 12:21 UTC NOAA

TAF TAF LJPZ 271100Z 2712/2821 30003KT 9999 FEW050 PROB30
TEMPO 2712/2718 -SHRA SCT040TCU BKN070
BECMG 2718/2720 06012G25KT RA

Example: see airport list